Time;durP1;ratioP1;P1;durP2;ratioP2;P2;SDS_P1;SDS_P2;PMS_P1;PMS_P2;Temp;Humidity;BMP_temperature;BMP_pressure;BME280_temperature;BME280_humidity;BME280_pressure;Samples;Min_cycle;Max_cycle;Signal;HPM_P1;HPM_P2
2021/09/26 00:01:28;;;;;;;1.17;0.80;;;14.80;99.90;;;;;;4921339;29;20443;-78
2021/09/26 00:03:56;;;;;;;0.90;0.60;;;14.80;99.90;;;;;;4922056;29;20722;-78
2021/09/26 00:06:26;;;;;;;1.00;0.83;;;14.70;99.90;;;;;;4918761;29;20422;-78
2021/09/26 00:08:54;;;;;;;1.50;1.13;;;14.70;99.90;;;;;;4917076;29;20442;-78
2021/09/26 00:11:22;;;;;;;1.47;0.80;;;14.60;99.90;;;;;;4922698;29;20418;-77
2021/09/26 00:13:50;;;;;;;1.63;1.20;;;14.60;99.90;;;;;;4922025;29;20395;-78
2021/09/26 00:16:19;;;;;;;0.80;0.47;;;14.60;99.90;;;;;;4921991;29;20451;-78
2021/09/26 00:18:49;;;;;;;1.53;0.90;;;14.60;99.90;;;;;;4922565;29;20422;-78
2021/09/26 00:21:17;;;;;;;1.07;0.90;;;14.60;99.90;;;;;;4922489;29;20443;-78
2021/09/26 00:23:47;;;;;;;1.30;0.60;;;14.60;99.90;;;;;;4921828;29;20406;-78
2021/09/26 00:26:15;;;;;;;7.70;1.53;;;14.60;99.90;;;;;;4921354;29;20446;-78
2021/09/26 00:28:43;;;;;;;2.17;1.20;;;14.60;99.90;;;;;;4920203;29;20415;-78
2021/09/26 00:31:11;;;;;;;1.40;1.30;;;14.70;99.90;;;;;;4921178;29;20494;-78
2021/09/26 00:33:39;;;;;;;3.37;1.37;;;14.70;99.90;;;;;;4918595;29;20420;-79
2021/09/26 00:36:07;;;;;;;2.73;2.40;;;14.80;99.90;;;;;;4903579;29;20450;-78
2021/09/26 00:38:35;;;;;;;0.90;0.50;;;14.80;99.90;;;;;;4903180;29;20436;-79
2021/09/26 00:41:05;;;;;;;5.93;1.97;;;14.70;99.90;;;;;;4902989;29;20452;-78
2021/09/26 00:43:35;;;;;;;2.03;1.03;;;14.80;99.90;;;;;;4903697;29;20470;-79
2021/09/26 00:46:05;;;;;;;1.20;1.00;;;14.70;99.90;;;;;;4903142;29;20560;-79
2021/09/26 00:48:33;;;;;;;1.00;0.57;;;14.70;99.90;;;;;;4903581;29;20754;-79
2021/09/26 00:51:02;;;;;;;1.90;1.73;;;14.80;99.90;;;;;;4903307;29;20398;-79
2021/09/26 00:53:30;;;;;;;1.43;1.07;;;14.90;99.90;;;;;;4902660;29;20409;-79
2021/09/26 00:55:58;;;;;;;1.20;1.03;;;14.90;99.90;;;;;;4903635;29;20453;-78
2021/09/26 00:58:29;;;;;;;1.20;0.63;;;15.00;99.90;;;;;;4903577;29;20824;-79
2021/09/26 01:00:57;;;;;;;1.30;1.10;;;15.00;99.90;;;;;;4900783;29;20542;-78
2021/09/26 01:03:25;;;;;;;2.40;1.17;;;15.10;99.90;;;;;;4902816;29;20525;-79
2021/09/26 01:06:04;;;;;;;1.37;0.80;;;15.20;99.90;;;;;;4901035;29;20540;-79
2021/09/26 01:08:43;;;;;;;3.27;0.90;;;15.20;99.90;;;;;;4901808;29;20404;-77
2021/09/26 01:11:16;;;;;;;2.53;2.33;;;15.20;99.90;;;;;;4902921;29;20415;-79
2021/09/26 01:13:54;;;;;;;0.80;0.50;;;15.10;99.90;;;;;;4902655;29;20427;-79
2021/09/26 01:16:29;;;;;;;1.07;0.93;;;15.10;99.90;;;;;;4901505;29;20470;-79
2021/09/26 01:19:07;;;;;;;2.30;2.10;;;15.30;99.90;;;;;;4901732;29;20830;-79
2021/09/26 01:21:44;;;;;;;1.77;1.07;;;15.30;99.90;;;;;;4902148;29;20510;-79
2021/09/26 01:24:47;;;;;;;2.87;1.23;;;15.40;99.90;;;;;;4899716;29;20449;-78
2021/09/26 01:27:46;;;;;;;1.20;0.63;;;15.40;99.90;;;;;;4900239;29;20858;-79
2021/09/26 01:30:29;;;;;;;1.47;1.37;;;15.50;99.90;;;;;;4901798;29;20392;-79
2021/09/26 01:33:03;;;;;;;2.70;1.20;;;15.40;99.90;;;;;;4901322;29;20434;-78
2021/09/26 01:35:36;;;;;;;1.13;1.03;;;15.30;99.90;;;;;;4901649;29;20493;-79
2021/09/26 01:38:09;;;;;;;2.70;2.20;;;15.30;99.90;;;;;;4901950;29;20429;-79
2021/09/26 01:40:46;;;;;;;1.00;0.80;;;15.40;99.90;;;;;;4900350;29;20973;-78
2021/09/26 01:43:18;;;;;;;1.47;1.33;;;15.50;99.90;;;;;;4901236;29;20469;-79
2021/09/26 01:45:52;;;;;;;1.10;0.60;;;15.50;99.90;;;;;;4900874;29;20436;-79
2021/09/26 01:48:25;;;;;;;4.40;1.20;;;15.60;99.90;;;;;;4900436;29;20421;-79
2021/09/26 01:50:58;;;;;;;4.40;1.07;;;15.60;99.90;;;;;;4899856;29;20585;-79
2021/09/26 01:53:29;;;;;;;2.03;0.70;;;15.70;99.90;;;;;;4900176;29;20430;-79
2021/09/26 01:55:58;;;;;;;0.90;0.60;;;15.70;99.90;;;;;;4901154;29;20453;-79
2021/09/26 01:58:28;;;;;;;1.50;0.90;;;15.70;99.90;;;;;;4902130;29;20424;-79
2021/09/26 02:00:57;;;;;;;0.80;0.50;;;15.70;99.90;;;;;;4898722;29;20883;-79
2021/09/26 02:03:27;;;;;;;1.77;1.67;;;15.70;99.90;;;;;;4902515;29;20431;-79
2021/09/26 02:05:55;;;;;;;1.70;1.57;;;15.70;99.90;;;;;;4901012;29;20433;-79
2021/09/26 02:08:24;;;;;;;2.23;2.10;;;15.70;99.90;;;;;;4899505;29;20454;-77
2021/09/26 02:10:53;;;;;;;1.93;1.37;;;15.70;99.90;;;;;;4901078;29;20844;-77
2021/09/26 02:13:22;;;;;;;1.63;1.53;;;15.80;99.90;;;;;;4899099;29;20435;-79
2021/09/26 02:15:52;;;;;;;2.87;1.33;;;15.80;99.90;;;;;;4900614;29;20452;-78
2021/09/26 02:18:21;;;;;;;4.27;1.63;;;15.90;99.90;;;;;;4899570;29;20427;-79
2021/09/26 02:20:51;;;;;;;3.13;1.60;;;15.90;99.90;;;;;;4900321;29;20820;-78
2021/09/26 02:23:19;;;;;;;2.97;1.07;;;15.90;99.90;;;;;;4900864;29;20433;-78
2021/09/26 02:25:48;;;;;;;2.43;2.20;;;15.90;99.90;;;;;;4900931;29;20453;-78
2021/09/26 02:28:16;;;;;;;1.50;0.90;;;15.90;99.90;;;;;;4900368;29;20548;-78
2021/09/26 02:30:44;;;;;;;0.90;0.60;;;15.90;99.90;;;;;;4900990;29;20850;-78
2021/09/26 02:33:13;;;;;;;1.23;1.13;;;15.90;99.90;;;;;;4899592;29;20452;-80
2021/09/26 02:35:43;;;;;;;1.50;1.37;;;15.80;99.90;;;;;;4899984;29;20833;-79
2021/09/26 02:38:11;;;;;;;1.10;0.90;;;15.60;99.90;;;;;;4899797;29;20474;-79
2021/09/26 02:40:42;;;;;;;1.40;1.00;;;15.50;99.90;;;;;;4898805;29;20994;-78
2021/09/26 02:43:22;;;;;;;3.03;1.03;;;15.40;99.90;;;;;;4898198;29;20425;-79
2021/09/26 02:45:56;;;;;;;3.07;2.70;;;15.40;99.90;;;;;;4898518;29;20461;-78
2021/09/26 02:48:28;;;;;;;1.00;0.60;;;15.50;99.90;;;;;;4899236;29;20411;-79
2021/09/26 02:50:59;;;;;;;1.47;1.30;;;15.60;99.90;;;;;;4899142;29;20414;-78
2021/09/26 02:53:28;;;;;;;2.27;1.03;;;15.70;99.90;;;;;;4900006;29;20433;-78
2021/09/26 02:55:59;;;;;;;1.40;1.07;;;15.70;99.90;;;;;;4898953;29;20433;-77
2021/09/26 02:58:28;;;;;;;1.23;0.70;;;15.70;99.90;;;;;;4898938;29;20904;-78
2021/09/26 03:00:56;;;;;;;1.00;0.80;;;15.70;99.90;;;;;;4898952;29;20459;-77
2021/09/26 03:03:27;;;;;;;2.70;1.50;;;15.80;99.90;;;;;;4897764;29;20431;-78
2021/09/26 03:05:55;;;;;;;1.00;0.73;;;15.70;99.90;;;;;;4898738;29;20432;-77
2021/09/26 03:08:25;;;;;;;1.10;0.70;;;15.70;99.90;;;;;;4901896;29;20432;-78
2021/09/26 03:10:57;;;;;;;2.97;2.40;;;15.80;99.90;;;;;;4902674;29;20421;-78
2021/09/26 03:13:26;;;;;;;1.13;0.87;;;15.80;99.90;;;;;;4899558;29;21057;-78
2021/09/26 03:15:54;;;;;;;4.07;2.67;;;15.80;99.90;;;;;;4898140;29;20796;-77
2021/09/26 03:18:22;;;;;;;1.13;0.67;;;15.90;99.90;;;;;;4898908;29;20393;-78
2021/09/26 03:20:51;;;;;;;1.67;1.40;;;16.00;99.90;;;;;;4899036;29;20982;-77
2021/09/26 03:23:19;;;;;;;4.87;0.90;;;16.00;99.90;;;;;;4899388;29;20434;-78
2021/09/26 03:25:49;;;;;;;1.90;1.80;;;15.90;99.90;;;;;;4899954;29;20885;-77
2021/09/26 03:28:17;;;;;;;1.00;0.80;;;16.00;99.90;;;;;;4904088;29;20440;-78
2021/09/26 03:30:45;;;;;;;3.43;2.30;;;16.10;99.90;;;;;;4906182;29;20421;-78
2021/09/26 03:33:13;;;;;;;1.93;1.23;;;16.00;99.90;;;;;;4906124;29;20437;-77
2021/09/26 03:35:41;;;;;;;2.70;2.17;;;15.90;99.90;;;;;;4907326;29;20803;-78
2021/09/26 03:38:09;;;;;;;1.20;1.00;;;16.00;99.90;;;;;;4907212;29;20470;-78
2021/09/26 03:40:37;;;;;;;1.87;1.03;;;16.10;99.90;;;;;;4909710;29;20489;-78
2021/09/26 03:43:07;;;;;;;2.83;1.47;;;16.10;99.90;;;;;;4908928;29;20438;-78
2021/09/26 03:45:35;;;;;;;2.10;1.97;;;15.90;99.90;;;;;;4906538;29;20436;-77
2021/09/26 03:48:04;;;;;;;1.10;1.00;;;15.90;99.90;;;;;;4902935;29;20873;-78
2021/09/26 03:50:32;;;;;;;2.00;0.97;;;15.80;99.90;;;;;;4901543;29;20793;-77
2021/09/26 03:53:00;;;;;;;1.20;0.63;;;15.80;99.90;;;;;;4901757;29;20421;-77
2021/09/26 03:55:28;;;;;;;1.63;0.90;;;15.70;99.90;;;;;;4901435;29;20453;-78
2021/09/26 03:57:56;;;;;;;0.90;0.70;;;15.70;99.90;;;;;;4901391;29;20469;-77
2021/09/26 04:00:26;;;;;;;1.40;1.00;;;15.60;99.90;;;;;;4900543;29;20413;-77
2021/09/26 04:02:54;;;;;;;1.30;0.90;;;15.60;99.90;;;;;;4901334;29;20430;-78
2021/09/26 04:05:22;;;;;;;1.40;1.23;;;15.70;99.90;;;;;;4902588;29;20455;-78
2021/09/26 04:07:50;;;;;;;1.40;1.30;;;15.70;99.90;;;;;;4902401;29;20451;-78
2021/09/26 04:10:19;;;;;;;2.27;0.97;;;15.70;99.90;;;;;;4901941;29;20472;-77
2021/09/26 04:12:47;;;;;;;2.83;1.40;;;15.60;99.90;;;;;;4902046;29;20413;-77
2021/09/26 04:15:15;;;;;;;1.97;1.67;;;15.60;99.90;;;;;;4903121;29;20993;-78
2021/09/26 04:17:45;;;;;;;1.90;0.87;;;15.50;99.90;;;;;;4902084;29;20414;-77
2021/09/26 04:20:13;;;;;;;1.30;0.80;;;15.60;99.90;;;;;;4901762;29;20414;-79
2021/09/26 04:22:41;;;;;;;1.37;0.97;;;15.70;99.90;;;;;;4900612;29;20462;-77
2021/09/26 04:25:11;;;;;;;1.00;0.70;;;15.70;99.90;;;;;;4902468;29;21016;-78
2021/09/26 04:27:39;;;;;;;0.90;0.73;;;15.80;99.90;;;;;;4902976;29;20470;-78
2021/09/26 04:30:08;;;;;;;1.40;1.30;;;15.70;99.90;;;;;;4901644;29;20478;-78
2021/09/26 04:32:37;;;;;;;3.00;1.03;;;15.70;99.90;;;;;;4903715;29;20493;-79
2021/09/26 04:35:07;;;;;;;0.80;0.50;;;15.60;99.90;;;;;;4902548;29;20473;-78
2021/09/26 04:37:35;;;;;;;2.40;2.20;;;15.70;99.90;;;;;;4903231;29;20389;-78
2021/09/26 04:40:04;;;;;;;0.97;0.70;;;15.70;99.90;;;;;;4901780;29;20409;-78
2021/09/26 04:42:32;;;;;;;0.90;0.70;;;15.60;99.90;;;;;;4902990;29;20527;-78
2021/09/26 04:45:02;;;;;;;1.10;0.97;;;15.50;99.90;;;;;;4901186;29;20537;-77
2021/09/26 04:47:30;;;;;;;1.00;0.77;;;15.50;99.90;;;;;;4901606;29;20445;-78
2021/09/26 04:49:58;;;;;;;1.63;1.13;;;15.40;99.90;;;;;;4901913;29;20953;-78
2021/09/26 04:52:28;;;;;;;1.10;0.80;;;15.40;99.90;;;;;;4902819;29;20831;-80
2021/09/26 04:54:56;;;;;;;1.73;1.00;;;15.40;99.90;;;;;;4910588;29;20822;-78
2021/09/26 04:57:24;;;;;;;1.57;1.27;;;15.40;99.90;;;;;;4918598;29;20467;-77
2021/09/26 04:59:52;;;;;;;1.40;0.70;;;15.40;99.90;;;;;;4914792;29;20422;-78
2021/09/26 05:02:20;;;;;;;1.10;0.80;;;15.40;99.90;;;;;;4914764;29;20454;-78
2021/09/26 05:04:48;;;;;;;1.10;0.70;;;15.40;99.90;;;;;;4900523;29;20490;-78
2021/09/26 05:07:16;;;;;;;2.97;0.80;;;15.40;99.90;;;;;;4901940;29;20409;-79
2021/09/26 05:09:46;;;;;;;1.00;0.90;;;15.40;99.90;;;;;;4904854;29;20420;-80
2021/09/26 05:12:14;;;;;;;2.50;2.30;;;15.50;99.90;;;;;;4901860;29;20759;-79
2021/09/26 05:14:42;;;;;;;1.20;0.83;;;15.60;99.90;;;;;;4901416;29;20429;-78
2021/09/26 05:17:10;;;;;;;1.13;1.03;;;15.70;99.90;;;;;;4902292;29;20861;-79
2021/09/26 05:19:39;;;;;;;10.40;1.60;;;15.70;99.90;;;;;;4903260;29;20400;-79
2021/09/26 05:22:07;;;;;;;2.93;1.40;;;15.70;99.90;;;;;;4899465;29;20504;-78
2021/09/26 05:24:35;;;;;;;1.57;0.70;;;15.80;99.90;;;;;;4902279;29;20785;-79
2021/09/26 05:27:05;;;;;;;1.20;0.50;;;15.90;99.90;;;;;;4901428;29;20422;-78
2021/09/26 05:29:33;;;;;;;1.87;0.80;;;15.90;99.90;;;;;;4901459;29;20826;-79
2021/09/26 05:32:01;;;;;;;1.30;0.60;;;15.90;99.90;;;;;;4901284;29;20426;-79
2021/09/26 05:34:30;;;;;;;1.10;0.90;;;15.90;99.90;;;;;;4901079;29;20450;-78
2021/09/26 05:36:58;;;;;;;1.17;1.07;;;16.00;99.90;;;;;;4901166;29;20409;-79
2021/09/26 05:39:26;;;;;;;1.43;1.07;;;16.00;99.90;;;;;;4901914;29;20462;-78
2021/09/26 05:41:54;;;;;;;1.20;0.80;;;15.90;99.90;;;;;;4900221;29;20457;-78
2021/09/26 05:44:24;;;;;;;1.20;0.90;;;16.10;99.90;;;;;;4901252;29;20988;-79
2021/09/26 05:46:52;;;;;;;0.90;0.63;;;16.10;99.90;;;;;;4901774;29;20453;-78
2021/09/26 05:49:20;;;;;;;1.03;0.93;;;16.10;99.90;;;;;;4902580;29;20412;-79
2021/09/26 05:51:48;;;;;;;1.37;1.27;;;16.20;99.90;;;;;;4903234;29;20406;-80
2021/09/26 05:54:16;;;;;;;1.10;1.00;;;16.20;99.90;;;;;;4899993;29;20439;-78
2021/09/26 05:56:44;;;;;;;4.00;1.23;;;16.40;99.90;;;;;;4900971;29;20664;-79
2021/09/26 05:59:13;;;;;;;1.50;1.17;;;16.40;99.90;;;;;;4901141;29;20438;-78
2021/09/26 06:01:42;;;;;;;1.00;0.83;;;16.60;99.90;;;;;;4901150;29;20409;-79
2021/09/26 06:04:10;;;;;;;1.37;1.20;;;16.70;99.90;;;;;;4900164;29;21007;-79
2021/09/26 06:06:38;;;;;;;1.97;1.87;;;16.80;99.90;;;;;;4899972;29;20434;-78
2021/09/26 06:09:06;;;;;;;1.10;0.60;;;16.90;99.90;;;;;;4901772;29;20405;-79
2021/09/26 06:11:35;;;;;;;1.40;1.07;;;17.00;99.90;;;;;;4901355;29;20904;-78
2021/09/26 06:14:03;;;;;;;5.13;0.80;;;17.00;99.90;;;;;;4899777;29;21087;-79
2021/09/26 06:16:31;;;;;;;2.20;0.80;;;17.20;99.90;;;;;;4900957;29;20401;-78
2021/09/26 06:19:00;;;;;;;0.93;0.63;;;17.30;99.90;;;;;;4898901;29;20449;-80
2021/09/26 06:21:29;;;;;;;2.00;1.10;;;17.40;99.90;;;;;;4900693;29;20434;-78
2021/09/26 06:23:57;;;;;;;0.90;0.67;;;17.50;99.90;;;;;;4900670;29;20974;-79
2021/09/26 06:26:25;;;;;;;2.00;1.10;;;17.50;99.90;;;;;;4900778;29;20389;-79
2021/09/26 06:28:53;;;;;;;2.03;0.97;;;17.70;99.90;;;;;;4900566;29;20470;-80
2021/09/26 06:31:21;;;;;;;1.40;0.60;;;17.60;99.90;;;;;;4899370;29;20416;-80
2021/09/26 06:33:50;;;;;;;1.10;0.80;;;17.70;99.90;;;;;;4901811;29;20775;-79
2021/09/26 06:36:19;;;;;;;3.17;1.60;;;17.80;99.90;;;;;;4900211;29;20456;-79
2021/09/26 06:38:47;;;;;;;1.00;0.87;;;17.80;99.90;;;;;;4900825;29;21000;-80
2021/09/26 06:41:18;;;;;;;1.70;0.80;;;17.90;99.90;;;;;;4901301;29;20420;-80
2021/09/26 06:43:46;;;;;;;3.33;0.93;;;17.90;99.90;;;;;;4900615;29;20429;-79
2021/09/26 06:46:14;;;;;;;1.63;0.70;;;17.80;99.90;;;;;;4901278;29;20816;-81
2021/09/26 06:48:44;;;;;;;0.90;0.40;;;17.80;99.90;;;;;;4901192;29;20409;-78
2021/09/26 06:51:12;;;;;;;1.00;0.70;;;17.90;99.90;;;;;;4900663;29;20397;-79
2021/09/26 06:53:42;;;;;;;2.17;0.80;;;18.00;99.90;;;;;;4903445;29;20386;-79
2021/09/26 06:56:10;;;;;;;1.37;1.10;;;18.00;99.90;;;;;;4903306;29;20822;-79
2021/09/26 06:58:38;;;;;;;0.93;0.67;;;18.00;99.90;;;;;;4902777;29;20901;-80
2021/09/26 07:01:07;;;;;;;4.50;1.07;;;18.10;99.90;;;;;;4901472;29;20409;-80
2021/09/26 07:03:36;;;;;;;1.10;0.90;;;18.20;99.90;;;;;;4904808;29;20473;-79
2021/09/26 07:06:04;;;;;;;1.43;0.80;;;18.20;99.90;;;;;;4906740;29;20453;-79
2021/09/26 07:08:32;;;;;;;1.93;1.03;;;18.20;99.90;;;;;;4904398;29;20511;-79
2021/09/26 07:11:01;;;;;;;0.90;0.50;;;18.30;99.90;;;;;;4905758;29;20478;-78
2021/09/26 07:13:29;;;;;;;1.10;0.80;;;18.30;99.90;;;;;;4906337;29;20417;-80
2021/09/26 07:15:58;;;;;;;1.93;1.73;;;18.40;99.90;;;;;;4905749;29;20417;-80
2021/09/26 07:18:26;;;;;;;2.87;2.67;;;18.50;99.90;;;;;;4906607;29;20401;-79
2021/09/26 07:20:54;;;;;;;0.90;0.53;;;18.60;99.90;;;;;;4912154;29;20456;-79
2021/09/26 07:23:23;;;;;;;0.90;0.50;;;18.70;99.90;;;;;;4911903;29;20495;-79
2021/09/26 07:25:51;;;;;;;3.20;2.30;;;18.70;99.90;;;;;;4915934;29;20417;-80
2021/09/26 07:28:20;;;;;;;0.90;0.50;;;18.70;99.90;;;;;;4913995;29;20445;-79
2021/09/26 07:30:48;;;;;;;1.80;1.23;;;18.80;99.90;;;;;;4915452;29;20457;-79
2021/09/26 07:33:22;;;;;;;1.10;0.80;;;18.90;99.90;;;;;;4902506;29;20429;-79
2021/09/26 07:35:50;;;;;;;1.20;0.90;;;18.90;99.90;;;;;;4905505;29;20447;-81
2021/09/26 07:38:18;;;;;;;2.03;1.93;;;18.90;99.90;;;;;;4907233;29;20453;-81
2021/09/26 07:40:47;;;;;;;1.03;0.73;;;19.10;99.90;;;;;;4904827;29;20476;-81
2021/09/26 07:43:15;;;;;;;1.57;0.90;;;19.10;99.90;;;;;;4906496;29;20485;-82
2021/09/26 07:45:57;;;;;;;1.67;1.57;;;19.10;99.90;;;;;;4905783;29;20504;-81
2021/09/26 07:48:25;;;;;;;1.00;0.77;;;19.20;99.90;;;;;;4905866;29;20440;-82
2021/09/26 07:50:53;;;;;;;1.30;0.60;;;19.30;99.90;;;;;;4905145;29;20488;-80
2021/09/26 07:53:21;;;;;;;1.20;0.60;;;19.40;99.90;;;;;;4904384;29;20403;-79
2021/09/26 07:55:51;;;;;;;1.10;0.90;;;19.50;99.90;;;;;;4904204;29;20488;-82
2021/09/26 07:58:19;;;;;;;1.40;0.90;;;19.50;99.90;;;;;;4906001;29;20409;-81
2021/09/26 08:00:48;;;;;;;1.17;0.60;;;19.70;99.90;;;;;;4905241;29;20418;-82
2021/09/26 08:03:17;;;;;;;1.73;0.80;;;19.70;99.90;;;;;;4905503;29;20846;-81
2021/09/26 08:05:46;;;;;;;1.10;0.50;;;19.60;99.90;;;;;;4905344;29;20961;-81
2021/09/26 08:08:14;;;;;;;1.90;1.33;;;19.70;99.90;;;;;;4905129;29;20396;-80
2021/09/26 08:10:42;;;;;;;1.80;0.97;;;19.80;99.90;;;;;;4906288;29;20820;-82
2021/09/26 08:13:14;;;;;;;3.77;0.93;;;19.90;99.90;;;;;;4906366;29;20398;-83
2021/09/26 08:15:42;;;;;;;1.83;1.20;;;19.90;99.90;;;;;;4904887;29;20417;-80
2021/09/26 08:18:10;;;;;;;1.20;0.97;;;20.00;99.90;;;;;;4905450;29;20424;-82
2021/09/26 08:20:40;;;;;;;1.90;0.63;;;20.10;99.90;;;;;;4904984;29;20445;-83
2021/09/26 08:23:08;;;;;;;4.67;1.23;;;20.20;99.90;;;;;;4905315;29;20502;-81
2021/09/26 08:25:36;;;;;;;1.00;0.50;;;20.20;99.90;;;;;;4905414;29;20528;-79
2021/09/26 08:28:05;;;;;;;1.00;0.60;;;20.30;99.90;;;;;;4906335;29;20437;-82
2021/09/26 08:30:33;;;;;;;2.63;1.50;;;20.30;99.90;;;;;;4906763;29;20457;-82
2021/09/26 08:33:02;;;;;;;1.13;0.57;;;20.40;99.90;;;;;;4909456;29;20435;-81
2021/09/26 08:35:30;;;;;;;1.30;0.90;;;20.50;99.90;;;;;;4911443;29;20437;-81
2021/09/26 08:37:59;;;;;;;1.10;0.80;;;20.60;99.90;;;;;;4915005;29;20437;-81
2021/09/26 08:40:28;;;;;;;1.63;0.60;;;20.70;99.90;;;;;;4914723;29;20437;-84
2021/09/26 08:42:57;;;;;;;1.77;1.00;;;20.80;99.90;;;;;;4914382;29;20450;-80
2021/09/26 08:45:26;;;;;;;1.60;1.10;;;20.80;99.90;;;;;;4911258;29;20425;-83
2021/09/26 08:47:54;;;;;;;1.00;0.67;;;20.90;99.90;;;;;;4908579;29;20434;-82
2021/09/26 08:50:23;;;;;;;1.47;0.77;;;21.00;99.90;;;;;;4904702;29;20397;-84
2021/09/26 08:52:52;;;;;;;1.43;1.10;;;21.20;99.90;;;;;;4905836;29;20404;-82
2021/09/26 08:55:22;;;;;;;1.50;1.00;;;21.40;99.90;;;;;;4904339;29;20434;-82
2021/09/26 08:57:50;;;;;;;2.33;1.27;;;21.40;99.90;;;;;;4904863;29;20438;-82
2021/09/26 09:00:19;;;;;;;1.87;1.57;;;21.60;99.90;;;;;;4903745;29;20409;-82
2021/09/26 09:02:47;;;;;;;1.53;1.30;;;21.70;99.90;;;;;;4904578;29;20405;-83
2021/09/26 09:05:32;;;;;;;1.03;0.57;;;21.50;99.90;;;;;;4904152;29;20459;-81
2021/09/26 09:08:06;;;;;;;1.30;1.00;;;21.40;99.90;;;;;;4905456;29;20400;-83
2021/09/26 09:10:51;;;;;;;1.33;0.90;;;21.30;99.90;;;;;;4905940;29;20500;-80
2021/09/26 09:13:21;;;;;;;1.10;0.80;;;21.40;99.90;;;;;;4906633;29;20458;-81
2021/09/26 09:15:54;;;;;;;1.20;1.10;;;21.40;99.90;;;;;;4904791;29;20923;-82
2021/09/26 09:18:23;;;;;;;1.07;0.70;;;21.50;99.90;;;;;;4904915;29;20397;-82
2021/09/26 09:20:52;;;;;;;1.00;0.60;;;21.60;99.90;;;;;;4904576;29;20529;-80
2021/09/26 09:23:22;;;;;;;2.77;1.03;;;21.60;99.90;;;;;;4904992;29;20890;-82
2021/09/26 09:25:55;;;;;;;5.40;1.43;;;21.80;99.90;;;;;;4903280;29;20433;-82
2021/09/26 09:28:25;;;;;;;1.10;0.80;;;22.00;99.90;;;;;;4904064;29;20533;-81
2021/09/26 09:30:55;;;;;;;1.50;0.70;;;21.90;99.90;;;;;;4904423;29;20458;-81
2021/09/26 09:33:36;;;;;;;2.20;1.10;;;21.80;99.90;;;;;;4905397;29;20456;-82
2021/09/26 09:36:04;;;;;;;1.10;0.70;;;21.90;99.90;;;;;;4904113;29;20432;-79
2021/09/26 09:38:37;;;;;;;1.43;0.70;;;22.10;99.90;;;;;;4906987;29;20413;-80
2021/09/26 09:41:10;;;;;;;2.57;1.63;;;22.30;99.90;;;;;;4913035;29;20444;-81
2021/09/26 09:43:47;;;;;;;3.10;1.90;;;22.40;99.90;;;;;;4915166;29;20447;-81
2021/09/26 09:46:27;;;;;;;2.20;1.20;;;22.60;99.90;;;;;;4908110;29;20439;-84
2021/09/26 09:49:09;;;;;;;1.03;0.60;;;22.60;99.90;;;;;;4904922;29;20460;-83
2021/09/26 09:51:38;;;;;;;1.07;0.70;;;22.60;99.90;;;;;;4905834;29;20418;-80
2021/09/26 09:54:08;;;;;;;1.97;1.43;;;22.60;99.90;;;;;;4907235;29;20407;-78
2021/09/26 09:56:43;;;;;;;1.10;0.80;;;22.70;99.90;;;;;;4904768;29;20518;-79
2021/09/26 09:59:13;;;;;;;1.47;1.37;;;22.70;99.90;;;;;;4903616;29;20795;-77
2021/09/26 10:01:43;;;;;;;2.50;1.07;;;22.80;99.90;;;;;;4905102;29;20423;-79
2021/09/26 10:04:12;;;;;;;1.20;0.60;;;22.90;99.90;;;;;;4902950;29;20470;-79
2021/09/26 10:06:42;;;;;;;1.17;0.60;;;23.00;99.90;;;;;;4903040;29;20426;-77
2021/09/26 10:09:24;;;;;;;3.53;0.90;;;23.30;99.90;;;;;;4901691;29;20423;-80
2021/09/26 10:11:57;;;;;;;1.10;0.60;;;23.20;99.90;;;;;;4901870;29;20449;-79
2021/09/26 10:14:27;;;;;;;1.83;1.10;;;23.30;99.90;;;;;;4897112;29;20962;-78
2021/09/26 10:16:58;;;;;;;1.00;0.50;;;23.50;99.90;;;;;;4901844;29;20415;-78
2021/09/26 10:19:26;;;;;;;1.10;0.70;;;23.50;99.90;;;;;;4905234;29;20906;-77
2021/09/26 10:21:56;;;;;;;1.10;0.57;;;23.50;99.90;;;;;;4908762;29;20938;-77
2021/09/26 10:24:28;;;;;;;1.10;0.70;;;23.50;99.90;;;;;;4907983;29;20482;-77
2021/09/26 10:26:59;;;;;;;1.70;1.00;;;23.40;99.90;;;;;;4902957;29;20430;-78
2021/09/26 10:29:30;;;;;;;1.20;0.70;;;23.40;99.90;;;;;;4902209;29;20897;-77
2021/09/26 10:32:01;;;;;;;1.10;0.53;;;23.50;99.90;;;;;;4902298;29;20485;-79
2021/09/26 10:34:30;;;;;;;1.00;0.50;;;23.50;99.90;;;;;;4900783;29;20425;-77
2021/09/26 10:37:01;;;;;;;1.30;1.00;;;23.80;99.90;;;;;;4900523;29;20439;-77
2021/09/26 10:39:30;;;;;;;1.20;0.73;;;24.00;99.90;;;;;;4900422;29;20453;-78
2021/09/26 10:42:09;;;;;;;1.60;0.60;;;24.30;99.90;;;;;;4901434;29;20513;-79
2021/09/26 10:44:43;;;;;;;1.30;0.70;;;24.50;99.90;;;;;;4901471;29;20517;-77
2021/09/26 10:47:17;;;;;;;1.10;0.70;;;24.80;99.90;;;;;;4901864;29;20501;-78
2021/09/26 10:49:48;;;;;;;1.00;0.53;;;25.00;99.90;;;;;;4901878;29;20741;-78
2021/09/26 10:52:29;;;;;;;1.20;0.60;;;25.20;99.90;;;;;;4901597;29;20423;-78
2021/09/26 10:55:19;;;;;;;1.90;0.83;;;25.20;99.90;;;;;;4901946;29;20421;-79
2021/09/26 10:58:10;;;;;;;1.63;1.50;;;25.00;99.90;;;;;;4902266;29;20460;-77
2021/09/26 11:00:41;;;;;;;2.00;0.97;;;24.70;99.90;;;;;;4902516;29;20509;-77
2021/09/26 11:03:11;;;;;;;1.67;0.90;;;24.70;99.90;;;;;;4900089;29;20422;-79
2021/09/26 11:05:41;;;;;;;1.40;0.73;;;24.80;99.90;;;;;;4898784;29;20470;-78
2021/09/26 11:08:12;;;;;;;1.00;0.70;;;24.80;99.90;;;;;;4901944;29;20442;-79
2021/09/26 11:10:47;;;;;;;1.33;0.87;;;24.80;99.90;;;;;;4905958;29;20430;-76
2021/09/26 11:13:23;;;;;;;1.50;1.07;;;24.80;99.90;;;;;;4900981;29;20430;-78
2021/09/26 11:16:15;;;;;;;1.30;0.97;;;24.80;99.90;;;;;;4901177;29;20458;-79
2021/09/26 11:18:58;;;;;;;1.87;1.47;;;24.90;99.90;;;;;;4899020;29;20409;-78
2021/09/26 11:21:46;;;;;;;1.40;1.07;;;25.00;99.90;;;;;;4899569;29;20459;-76
2021/09/26 11:24:25;;;;;;;1.00;0.60;;;25.10;99.90;;;;;;4902874;29;20454;-77
2021/09/26 11:27:01;;;;;;;2.23;0.80;;;25.20;99.90;;;;;;4901663;29;20469;-78
2021/09/26 11:29:52;;;;;;;1.10;0.63;;;25.20;99.90;;;;;;4902439;29;20426;-79
2021/09/26 11:32:31;;;;;;;1.20;0.60;;;25.00;99.90;;;;;;4900889;29;20434;-78
2021/09/26 11:35:03;;;;;;;1.30;1.03;;;25.00;99.90;;;;;;4886117;29;20416;-77
2021/09/26 11:37:52;;;;;;;1.63;1.30;;;25.00;99.90;;;;;;4903718;29;20430;-76
2021/09/26 11:40:43;;;;;;;1.10;0.60;;;24.80;99.90;;;;;;4902426;29;20479;-77
2021/09/26 11:43:17;;;;;;;1.20;0.60;;;24.70;99.90;;;;;;4901188;29;20457;-78
2021/09/26 11:45:45;;;;;;;1.10;0.73;;;24.70;99.90;;;;;;4900248;29;20452;-77
2021/09/26 11:48:14;;;;;;;1.70;0.80;;;24.70;99.90;;;;;;4901596;29;20414;-79
2021/09/26 11:50:46;;;;;;;1.27;0.70;;;24.60;99.90;;;;;;4905609;29;20463;-78
2021/09/26 11:53:16;;;;;;;1.30;0.67;;;24.60;99.90;;;;;;4906292;29;20456;-78
2021/09/26 11:55:44;;;;;;;1.43;1.17;;;24.70;99.90;;;;;;4907263;29;21050;-77
2021/09/26 11:58:14;;;;;;;1.10;0.67;;;24.60;99.90;;;;;;4904472;29;20411;-79
2021/09/26 12:00:43;;;;;;;1.70;0.70;;;24.60;99.90;;;;;;4902700;29;20497;-78
2021/09/26 12:03:23;;;;;;;3.33;0.90;;;24.50;99.90;;;;;;4902750;29;20969;-79
2021/09/26 12:05:52;;;;;;;1.53;1.43;;;24.40;99.90;;;;;;4904128;29;20733;-79
2021/09/26 12:08:20;;;;;;;1.50;1.07;;;24.50;99.90;;;;;;4903157;29;20446;-79
2021/09/26 12:10:51;;;;;;;1.80;0.83;;;24.60;99.90;;;;;;4904337;29;20545;-83
2021/09/26 12:13:21;;;;;;;1.00;0.50;;;24.70;99.90;;;;;;4904530;29;20478;-79
2021/09/26 12:15:50;;;;;;;1.30;0.70;;;24.80;99.90;;;;;;4903986;29;20450;-80
2021/09/26 12:18:22;;;;;;;1.10;0.73;;;24.80;99.90;;;;;;4903235;29;20421;-80
2021/09/26 12:20:51;;;;;;;1.00;0.50;;;24.90;99.90;;;;;;4899927;29;20405;-79
2021/09/26 12:23:26;;;;;;;2.27;1.90;;;24.80;99.90;;;;;;4903552;29;20485;-79
2021/09/26 12:26:02;;;;;;;1.30;0.90;;;24.70;99.90;;;;;;4903582;29;20875;-79
2021/09/26 12:28:32;;;;;;;1.00;0.60;;;24.60;99.90;;;;;;4903741;29;20426;-79
2021/09/26 12:31:03;;;;;;;3.00;0.73;;;24.70;99.90;;;;;;4903671;29;20970;-79
2021/09/26 12:33:42;;;;;;;1.20;0.93;;;24.80;99.90;;;;;;4903510;29;20951;-81
2021/09/26 12:36:16;;;;;;;1.53;0.70;;;24.90;99.90;;;;;;4907179;29;20546;-77
2021/09/26 12:38:53;;;;;;;1.23;0.60;;;25.20;99.90;;;;;;4909533;29;20450;-78
2021/09/26 12:41:28;;;;;;;1.10;0.60;;;25.40;99.90;;;;;;4912021;29;20454;-80
2021/09/26 12:43:59;;;;;;;1.50;0.90;;;25.50;99.90;;;;;;4911888;29;20419;-78
2021/09/26 12:46:33;;;;;;;1.43;0.90;;;25.60;99.90;;;;;;4907530;29;20490;-78
2021/09/26 12:49:04;;;;;;;1.27;0.93;;;25.60;99.90;;;;;;4903416;29;20438;-81
2021/09/26 12:51:39;;;;;;;1.00;0.50;;;25.80;99.90;;;;;;4902233;29;20450;-80
2021/09/26 12:54:10;;;;;;;1.63;1.00;;;26.20;99.90;;;;;;4902319;29;20449;-80
2021/09/26 12:56:42;;;;;;;1.03;0.50;;;26.50;99.90;;;;;;4903701;29;20417;-80
2021/09/26 12:59:26;;;;;;;2.30;1.03;;;26.40;99.90;;;;;;4903286;29;20865;-79
2021/09/26 13:02:03;;;;;;;2.97;1.07;;;26.30;99.90;;;;;;4903535;29;20895;-80
2021/09/26 13:04:32;;;;;;;1.40;0.80;;;26.30;99.90;;;;;;4902902;29;20450;-80
2021/09/26 13:07:02;;;;;;;1.13;0.80;;;26.30;99.90;;;;;;4902651;29;20497;-80